Time;durP1;ratioP1;P1;durP2;ratioP2;P2;SDS_P1;SDS_P2;PMS_P1;PMS_P2;Temp;Humidity;BMP_temperature;BMP_pressure;BME280_temperature;BME280_humidity;BME280_pressure;Samples;Min_cycle;Max_cycle;Signal;HPM_P1;HPM_P2
2023/11/03 00:02:46;;;;;;;18.60;7.40;;;;;;;11.74;100.00;97835.61;223340;1266;140010;-82
2023/11/03 00:08:38;;;;;;;;;;;;;;;;;;;;;
2023/11/03 00:14:40;;;;;;;15.70;6.90;;;;;;;11.74;100.00;97756.88;223982;1266;138686;-81
2023/11/03 00:20:42;;;;;;;16.90;7.50;;;;;;;11.76;100.00;97727.67;223452;1266;139856;-81
2023/11/03 00:32:44;;;;;;;17.10;7.60;;;;;;;11.80;100.00;97753.59;223466;1264;140771;-83
2023/11/03 00:39:12;;;;;;;16.70;7.00;;;;;;;11.83;100.00;97739.95;223462;1264;139487;-83
2023/11/03 00:44:45;;;;;;;13.60;6.70;;;;;;;11.85;100.00;97738.84;223943;1266;142051;-80
2023/11/03 00:50:40;;;;;;;17.10;6.90;;;;;;;11.89;100.00;97733.73;223377;1264;139879;-80
2023/11/03 00:56:40;;;;;;;13.90;6.30;;;;;;;11.92;100.00;97728.12;223721;1264;138752;-81
2023/11/03 01:02:41;;;;;;;19.00;7.00;;;;;;;11.96;100.00;97698.84;223467;1265;139323;-82
2023/11/03 01:08:42;;;;;;;14.70;6.80;;;;;;;11.94;100.00;97679.77;223321;1268;140050;-82
2023/11/03 01:14:35;;;;;;;;;;;;;;;;;;;;;
2023/11/03 01:20:37;;;;;;;16.30;6.50;;;;;;;11.83;100.00;97699.38;223423;1266;140279;-81
2023/11/03 01:26:31;;;;;;;;;;;;;;;;;;;;;
2023/11/03 01:32:23;;;;;;;14.80;6.90;;;;;;;11.76;100.00;97685.59;223489;1266;139678;-80
2023/11/03 01:38:24;;;;;;;12.70;6.60;;;;;;;11.73;100.00;97683.86;223439;1268;140068;-80
2023/11/03 01:44:11;;;;;;;17.20;7.10;;;;;;;11.71;100.00;97674.58;224048;1267;138790;-81
2023/11/03 01:49:50;;;;;;;14.10;6.80;;;;;;;11.68;100.00;97676.05;223386;1264;139929;-81
2023/11/03 01:55:51;;;;;;;14.40;7.10;;;;;;;11.65;100.00;97667.56;223969;1264;138717;-82
2023/11/03 02:01:52;;;;;;;15.40;6.50;;;;;;;11.62;100.00;97665.88;223319;1264;139830;-82
2023/11/03 02:07:54;;;;;;;15.10;6.80;;;;;;;11.59;100.00;97667.63;224011;1264;139245;-84
2023/11/03 02:13:55;;;;;;;14.50;6.70;;;;;;;11.57;100.00;97659.56;223993;1264;139451;-84
2023/11/03 02:19:54;;;;;;;;;;;;;;;;;;;;;
2023/11/03 02:25:55;;;;;;;17.00;7.20;;;;;;;11.59;100.00;97656.13;224129;1264;139382;-84
2023/11/03 02:31:46;;;;;;;12.90;7.00;;;;;;;11.60;100.00;97647.40;223382;1264;139398;-85
2023/11/03 02:37:48;;;;;;;15.50;7.20;;;;;;;11.58;100.00;97641.28;223811;1264;138818;-86
2023/11/03 02:43:42;;;;;;;;;;;;;;;;;;;;;
2023/11/03 02:49:43;;;;;;;15.90;8.00;;;;;;;11.56;100.00;97626.86;223319;1264;139614;-86
2023/11/03 02:55:38;;;;;;;13.80;7.30;;;;;;;11.57;100.00;97628.65;224027;1264;138757;-87
2023/11/03 03:01:31;;;;;;;;;;;;;;;;;;;;;
2023/11/03 03:07:14;;;;;;;12.60;7.60;;;;;;;11.61;100.00;97608.23;223836;1264;138628;-87
2023/11/03 03:13:10;;;;;;;;;;;;;;;;;;;;;
2023/11/03 03:19:13;;;;;;;13.00;8.00;;;;;;;11.59;100.00;97598.38;223712;1264;139458;-87
2023/11/03 03:25:12;;;;;;;15.90;8.60;;;;;;;11.59;100.00;97597.92;223998;1264;138615;-87
2023/11/03 03:31:13;;;;;;;13.00;7.90;;;;;;;11.62;100.00;97593.58;223514;1264;140008;-86
2023/11/03 03:42:58;;;;;;;14.60;8.80;;;;;;;11.65;100.00;97586.98;223787;1264;139459;-88
2023/11/03 03:48:59;;;;;;;16.80;9.10;;;;;;;11.66;100.00;97584.41;223410;1264;141826;-89
2023/11/03 03:55:00;;;;;;;15.80;8.20;;;;;;;11.68;100.00;97580.48;223873;1264;138974;-88
2023/11/03 04:00:55;;;;;;;17.50;8.90;;;;;;;11.70;100.00;97580.27;223354;1264;139835;-88
2023/11/03 04:06:53;;;;;;;15.20;9.00;;;;;;;11.71;100.00;97580.85;224039;1264;139319;-89
2023/11/03 04:12:53;;;;;;;17.30;8.90;;;;;;;11.72;100.00;97574.28;223659;1264;139561;-88
2023/11/03 04:18:43;;;;;;;;;;;;;;;;;;;;;
2023/11/03 04:24:34;;;;;;;;;;;;;;;;;;;;;
2023/11/03 04:30:22;;;;;;;;;;;;;;;;;;;;;
2023/11/03 04:36:03;;;;;;;11.90;8.60;;;;;;;11.81;100.00;97587.99;224100;1265;108793;-91
2023/11/03 04:42:05;;;;;;;14.70;10.00;;;;;;;11.81;100.00;97583.75;223584;1264;139819;-90
2023/11/03 04:48:01;;;;;;;14.60;10.40;;;;;;;11.82;100.00;97582.02;223519;1264;140002;-89
2023/11/03 04:54:01;;;;;;;13.60;9.60;;;;;;;11.81;100.00;97584.45;224003;1264;138374;-90
2023/11/03 04:59:52;;;;;;;12.90;9.50;;;;;;;11.81;100.00;97582.03;223386;1264;139971;-87
2023/11/03 05:05:43;;;;;;;;;;;;;;;;;;;;;
2023/11/03 05:11:42;;;;;;;13.90;10.60;;;;;;;11.84;100.00;97583.02;223389;1264;139602;-87
2023/11/03 05:17:42;;;;;;;15.10;10.20;;;;;;;11.84;100.00;97594.95;223930;1264;138583;-88
2023/11/03 05:23:36;;;;;;;14.00;9.90;;;;;;;11.86;100.00;97600.48;223999;1264;138659;-88
2023/11/03 05:29:22;;;;;;;17.40;12.20;;;;;;;11.87;100.00;97604.13;223368;1264;140870;-88
2023/11/03 05:35:10;;;;;;;;;;;;;;;;;;;;;
2023/11/03 05:47:16;;;;;;;10.30;5.80;;;;;;;11.94;100.00;97638.52;223778;1264;138259;-89
2023/11/03 05:52:58;;;;;;;12.30;7.10;;;;;;;11.93;100.00;97643.92;223642;1264;141723;-89
2023/11/03 05:58:51;;;;;;;11.70;7.10;;;;;;;11.95;100.00;97653.21;223477;1264;139616;-89
2023/11/03 06:04:50;;;;;;;10.50;6.80;;;;;;;11.91;100.00;97667.05;224118;1264;138415;-88
2023/11/03 06:10:51;;;;;;;10.90;6.80;;;;;;;11.90;100.00;97662.28;223388;1264;139963;-89
2023/11/03 06:16:53;;;;;;;13.00;7.90;;;;;;;11.88;100.00;97660.46;223860;1264;138450;-88
2023/11/03 06:22:47;;;;;;;13.20;8.40;;;;;;;11.86;100.00;97657.70;223291;1264;139686;-89
2023/11/03 06:28:19;;;;;;;13.50;7.80;;;;;;;11.83;100.00;97648.84;223391;1264;139722;-89
2023/11/03 06:34:21;;;;;;;13.10;8.60;;;;;;;11.82;100.00;97619.45;223871;1264;139463;-89
2023/11/03 06:40:22;;;;;;;15.00;7.80;;;;;;;11.82;100.00;97625.75;223398;1264;139614;-87
2023/11/03 06:46:23;;;;;;;15.10;10.60;;;;;;;11.81;100.00;97662.80;223840;1264;139769;-88
2023/11/03 06:51:46;;;;;;;;;;;;;;;;;;;;;
2023/11/03 06:57:47;;;;;;;;;;;;;;;;;;;;;
2023/11/03 07:03:46;;;;;;;15.70;9.90;;;;;;;11.76;100.00;97685.60;223877;1264;243646;-88
2023/11/03 07:09:47;;;;;;;12.90;8.30;;;;;;;11.73;100.00;97724.11;223395;1264;140466;-87
2023/11/03 07:15:43;;;;;;;18.20;9.40;;;;;;;11.68;100.00;97747.98;223731;1264;139795;-89
2023/11/03 07:21:32;;;;;;;;;;;;;;;;;;;;;
2023/11/03 07:27:26;;;;;;;;;;;;;;;;;;;;;
2023/11/03 07:33:20;;;;;;;17.20;9.60;;;;;;;11.64;100.00;97756.30;223682;1265;223285;-88
2023/11/03 07:39:21;;;;;;;13.70;9.60;;;;;;;11.63;100.00;97776.73;223425;1264;139966;-88
2023/11/03 07:45:49;;;;;;;16.40;10.70;;;;;;;11.61;100.00;97788.05;223997;1264;138560;-88
2023/11/03 07:51:04;;;;;;;19.00;12.40;;;;;;;11.64;100.00;97776.85;223189;1264;139721;-85
2023/11/03 07:56:58;;;;;;;20.20;13.10;;;;;;;11.68;100.00;97771.04;224010;1266;138725;-85
2023/11/03 08:02:59;;;;;;;21.20;13.40;;;;;;;11.69;100.00;97770.04;223401;1264;139882;-85
2023/11/03 08:09:00;;;;;;;19.20;13.40;;;;;;;11.73;100.00;97749.43;223424;1264;140186;-85
2023/11/03 08:15:03;;;;;;;20.20;14.00;;;;;;;11.76;100.00;97746.25;223943;1264;139410;-85
2023/11/03 08:21:11;;;;;;;;;;;;;;;;;;;;;
2023/11/03 08:26:25;;;;;;;27.70;15.30;;;;;;;11.78;100.00;97777.59;223821;1264;138973;-85
2023/11/03 08:32:29;;;;;;;24.00;16.20;;;;;;;11.79;100.00;97782.92;223459;1264;139800;-85
2023/11/03 08:38:22;;;;;;;28.80;22.80;;;;;;;11.81;100.00;97758.31;223337;1266;140596;-85
2023/11/03 08:44:35;;;;;;;;;;;;;;;;;;;;;
2023/11/03 08:50:25;;;;;;;31.50;23.40;;;;;;;11.91;100.00;97765.80;223535;1264;139812;-85
2023/11/03 08:56:36;;;;;;;;;;;;;;;;;;;;;
2023/11/03 09:02:13;;;;;;;25.70;18.30;;;;;;;11.88;100.00;97814.40;223199;1264;139688;-84
2023/11/03 09:08:15;;;;;;;26.60;18.20;;;;;;;11.86;100.00;97796.45;223380;1264;139753;-82
2023/11/03 09:14:09;;;;;;;;;;;;;;;;;;;;;
2023/11/03 09:19:44;;;;;;;24.20;18.10;;;;;;;11.91;100.00;97752.17;223404;1265;140300;-83
2023/11/03 09:25:27;;;;;;;25.50;19.60;;;;;;;11.96;100.00;97739.07;224023;1264;138912;-84
2023/11/03 09:31:48;;;;;;;26.00;17.20;;;;;;;12.00;100.00;97740.70;219437;1265;5360338;-85
2023/11/03 09:37:32;;;;;;;25.20;18.10;;;;;;;12.03;100.00;97736.34;223889;1264;139590;-84
2023/11/03 09:43:19;;;;;;;20.70;16.10;;;;;;;12.06;100.00;97743.09;223908;1264;138805;-84
2023/11/03 09:49:19;;;;;;;22.40;16.40;;;;;;;12.09;100.00;97749.44;223317;1264;140308;-84
2023/11/03 09:55:19;;;;;;;;;;;;;;;;;;;;;
2023/11/03 10:01:23;;;;;;;23.50;15.60;;;;;;;12.12;100.00;97736.56;223427;1265;139744;-84
2023/11/03 10:07:14;;;;;;;22.50;15.00;;;;;;;12.11;100.00;97730.00;224044;1264;138771;-84
2023/11/03 10:13:09;;;;;;;24.70;15.40;;;;;;;12.09;100.00;97725.98;223877;1266;139938;-83
2023/11/03 10:18:59;;;;;;;;;;;;;;;;;;;;;
2023/11/03 10:24:48;;;;;;;23.70;15.50;;;;;;;12.06;100.00;97719.02;224219;1264;108918;-85
2023/11/03 10:30:47;;;;;;;26.30;16.40;;;;;;;12.07;100.00;97710.38;223642;1264;139694;-85
2023/11/03 10:36:03;;;;;;;22.50;15.00;;;;;;;12.09;100.00;97701.78;224076;1264;107333;-85
2023/11/03 10:42:08;;;;;;;27.60;17.10;;;;;;;12.06;100.00;97693.50;223635;1264;139965;-85
2023/11/03 10:48:01;;;;;;;;;;;;;;;;;;;;;
2023/11/03 10:54:10;;;;;;;24.50;15.20;;;;;;;12.01;100.00;97682.98;223980;1264;139152;-85
2023/11/03 11:00:10;;;;;;;24.50;16.50;;;;;;;12.04;100.00;97684.83;223544;1264;140397;-85
2023/11/03 11:06:28;;;;;;;;;;;;;;;;;;;;;
2023/11/03 11:12:27;;;;;;;29.10;16.80;;;;;;;12.07;100.00;97685.98;223640;1264;139922;-83
2023/11/03 11:18:26;;;;;;;26.30;18.20;;;;;;;12.08;100.00;97689.38;223636;1264;162719;-84
2023/11/03 11:23:57;;;;;;;;;;;;;;;;;;;;;
2023/11/03 11:29:55;;;;;;;;;;;;;;;;;;;;;
2023/11/03 11:35:51;;;;;;;;;;;;;;;;;;;;;
2023/11/03 11:41:37;;;;;;;;;;;;;;;;;;;;;
2023/11/03 11:47:29;;;;;;;;;;;;;;;;;;;;;
2023/11/03 11:53:35;;;;;;;;;;;;;;;;;;;;;
2023/11/03 11:59:27;;;;;;;29.00;18.00;;;;;;;12.04;100.00;97675.46;223550;1264;140488;-86
2023/11/03 12:05:29;;;;;;;25.50;16.80;;;;;;;11.98;100.00;97662.69;224128;1264;138765;-86
2023/11/03 12:11:17;;;;;;;30.20;19.10;;;;;;;11.98;100.00;97649.67;223564;1264;140034;-85
2023/11/03 12:16:54;;;;;;;;;;;;;;;;;;;;;
2023/11/03 12:22:59;;;;;;;27.50;18.20;;;;;;;11.94;100.00;97632.51;223583;1265;139850;-84
2023/11/03 12:29:27;;;;;;;29.60;16.70;;;;;;;11.93;100.00;97630.66;223509;1264;140065;-84
2023/11/03 12:35:04;;;;;;;34.60;23.30;;;;;;;11.88;100.00;97621.57;223830;1265;139183;-84
2023/11/03 12:40:47;;;;;;;;;;;;;;;;;;;;;
2023/11/03 12:46:50;;;;;;;34.70;21.40;;;;;;;11.85;100.00;97611.95;224117;1266;138836;-85
2023/11/03 12:52:58;;;;;;;30.70;19.20;;;;;;;11.85;100.00;97610.67;223456;1264;140820;-84
2023/11/03 12:58:50;;;;;;;29.10;18.10;;;;;;;11.85;100.00;97608.06;223475;1268;139950;-84
2023/11/03 13:04:51;;;;;;;28.70;17.90;;;;;;;11.84;100.00;97607.66;224129;1264;138840;-84
2023/11/03 13:10:40;;;;;;;27.80;17.70;;;;;;;11.81;100.00;97606.98;223581;1266;140084;-84
2023/11/03 13:16:34;;;;;;;25.30;17.20;;;;;;;11.79;100.00;97615.11;223788;1265;139137;-84
2023/11/03 13:22:37;;;;;;;28.20;18.30;;;;;;;11.76;100.00;97624.34;223479;1264;139807;-85
2023/11/03 13:28:45;;;;;;;;;;;;;;;;;;;;;
2023/11/03 13:34:30;;;;;;;;;;;;;;;;;;;;;
2023/11/03 13:40:39;;;;;;;25.40;16.80;;;;;;;11.70;100.00;97603.40;223464;1264;140098;-85
2023/11/03 13:46:39;;;;;;;29.40;18.20;;;;;;;11.67;100.00;97599.99;223944;1265;139970;-86
2023/11/03 13:52:28;;;;;;;;;;;;;;;;;;;;;
2023/11/03 14:04:15;;;;;;;24.10;16.40;;;;;;;11.54;100.00;97594.31;224133;1264;139778;-85
2023/11/03 14:10:07;;;;;;;26.10;16.40;;;;;;;11.52;100.00;97598.48;223663;1264;231078;-85
2023/11/03 14:15:49;;;;;;;26.40;15.90;;;;;;;11.47;100.00;97596.22;224079;1265;139402;-85
2023/11/03 14:21:50;;;;;;;28.20;17.70;;;;;;;11.46;100.00;97581.01;223681;1265;139866;-85
2023/11/03 14:27:38;;;;;;;;;;;;;;;;;;;;;
2023/11/03 14:33:08;;;;;;;23.50;15.20;;;;;;;11.39;100.00;97542.81;223895;1265;382353;-85
2023/11/03 14:38:59;;;;;;;28.10;17.30;;;;;;;11.36;100.00;97525.27;223373;1264;140544;-84
2023/11/03 14:45:01;;;;;;;;;;;;;;;;;;;;;
2023/11/03 14:50:35;;;;;;;23.90;14.80;;;;;;;11.26;100.00;97539.36;223545;1268;140328;-84
2023/11/03 14:56:18;;;;;;;;;;;;;;;;;;;;;
2023/11/03 15:02:09;;;;;;;27.60;17.10;;;;;;;11.20;100.00;97575.69;223432;1265;139775;-85
2023/11/03 15:08:03;;;;;;;26.10;16.40;;;;;;;11.16;100.00;97584.95;223477;1268;139867;-85
2023/11/03 15:14:06;;;;;;;26.50;15.10;;;;;;;11.13;100.00;97589.33;224153;1268;138972;-84
2023/11/03 15:19:41;;;;;;;;;;;;;;;;;;;;;
2023/11/03 15:25:13;;;;;;;;;;;;;;;;;;;;;
2023/11/03 15:31:14;;;;;;;25.10;15.70;;;;;;;11.00;100.00;97558.33;223504;1265;140649;-85
2023/11/03 15:37:04;;;;;;;25.30;16.00;;;;;;;10.99;100.00;97558.48;224054;1266;94622;-85
2023/11/03 15:42:56;;;;;;;;;;;;;;;;;;;;;
2023/11/03 15:48:46;;;;;;;;;;;;;;;;;;;;;
2023/11/03 15:54:54;;;;;;;27.30;18.20;;;;;;;10.81;100.00;97523.35;223924;1266;94529;-84
2023/11/03 16:00:53;;;;;;;;;;;;;;;;;;;;;
2023/11/03 16:06:43;;;;;;;;;;;;;;;;;;;;;
2023/11/03 16:12:26;;;;;;;27.10;14.80;;;;;;;10.67;100.00;97542.86;223618;1264;139558;-83
2023/11/03 16:18:19;;;;;;;;;;;;;;;;;;;;;
2023/11/03 16:24:10;;;;;;;;;;;;;;;;;;;;;
2023/11/03 16:30:14;;;;;;;31.10;21.30;;;;;;;10.57;100.00;97536.65;223331;1264;140004;-83
2023/11/03 16:36:12;;;;;;;26.30;16.10;;;;;;;10.54;100.00;97545.24;223918;1264;138847;-86
2023/11/03 16:42:07;;;;;;;24.70;14.60;;;;;;;10.50;100.00;97540.04;223390;1268;139416;-84
2023/11/03 16:47:52;;;;;;;;;;;;;;;;;;;;;
2023/11/03 16:53:39;;;;;;;;;;;;;;;;;;;;;
2023/11/03 16:59:41;;;;;;;61.00;43.70;;;;;;;10.38;100.00;97529.45;223488;1264;139790;-83
2023/11/03 17:05:33;;;;;;;;;;;;;;;;;;;;;
2023/11/03 17:11:28;;;;;;;28.80;19.40;;;;;;;10.31;100.00;97497.89;223497;1265;139783;-83
2023/11/03 17:17:29;;;;;;;22.50;13.50;;;;;;;10.30;100.00;97498.55;224047;1264;138754;-84
2023/11/03 17:22:51;;;;;;;;;;;;;;;;;;;;;
2023/11/03 17:28:54;;;;;;;19.40;12.10;;;;;;;10.24;100.00;97507.63;223469;1264;140050;-84
2023/11/03 17:34:48;;;;;;;;;;;;;;;;;;;;;
2023/11/03 17:40:42;;;;;;;;;;;;;;;;;;;;;
2023/11/03 17:46:43;;;;;;;;;;;;;;;;;;;;;
2023/11/03 17:52:33;;;;;;;18.80;10.40;;;;;;;10.07;100.00;97497.85;223362;1264;139406;-86
2023/11/03 17:58:32;;;;;;;;;;;;;;;;;;;;;
2023/11/03 18:04:34;;;;;;;21.50;11.30;;;;;;;9.99;100.00;97474.64;224065;1268;138808;-85
2023/11/03 18:09:57;;;;;;;;;;;;;;;;;;;;;
2023/11/03 18:15:51;;;;;;;17.00;9.90;;;;;;;9.92;100.00;97480.89;223999;1264;138491;-85
2023/11/03 18:21:45;;;;;;;;;;;;;;;;;;;;;
2023/11/03 18:27:47;;;;;;;17.60;9.80;;;;;;;9.85;100.00;97474.78;224054;1266;138503;-84
2023/11/03 18:33:49;;;;;;;17.70;8.90;;;;;;;9.81;100.00;97464.02;223889;1264;138482;-83
2023/11/03 18:39:49;;;;;;;17.90;8.80;;;;;;;9.76;100.00;97456.49;223540;1264;139576;-83
2023/11/03 18:45:38;;;;;;;;;;;;;;;;;;;;;
2023/11/03 18:51:43;;;;;;;22.00;13.50;;;;;;;9.69;100.00;97474.55;223550;1264;139225;-84
2023/11/03 18:57:55;;;;;;;;;;;;;;;;;;;;;
2023/11/03 19:03:46;;;;;;;19.90;11.60;;;;;;;9.67;100.00;97488.58;223869;1264;138926;-82
2023/11/03 19:09:46;;;;;;;20.60;11.40;;;;;;;9.66;100.00;97487.52;223457;1264;139377;-83
2023/11/03 19:15:48;;;;;;;14.30;8.60;;;;;;;9.63;100.00;97485.88;224024;1264;138467;-83
2023/11/03 19:21:46;;;;;;;;;;;;;;;;;;;;;
2023/11/03 19:27:49;;;;;;;14.50;7.80;;;;;;;9.54;100.00;97479.27;224010;1264;138304;-83
2023/11/03 19:33:40;;;;;;;16.00;9.10;;;;;;;9.49;100.00;97477.92;223858;1264;364483;-84
2023/11/03 19:45:45;;;;;;;17.40;10.00;;;;;;;9.42;100.00;97480.98;223935;1264;138393;-83
2023/11/03 19:51:45;;;;;;;16.60;8.90;;;;;;;9.35;100.00;97484.27;223346;1264;139074;-83
2023/11/03 19:57:58;;;;;;;;;;;;;;;;;;;;;
2023/11/03 20:03:50;;;;;;;16.70;9.60;;;;;;;9.27;100.00;97495.64;223776;1264;138770;-83
2023/11/03 20:09:39;;;;;;;15.90;8.80;;;;;;;9.21;100.00;97494.88;223297;1264;139631;-83
2023/11/03 20:15:34;;;;;;;18.20;8.00;;;;;;;9.17;100.00;97496.65;223767;1264;138370;-84
2023/11/03 20:21:30;;;;;;;19.00;8.30;;;;;;;9.13;100.00;97496.45;223314;1264;139348;-83
2023/11/03 20:27:24;;;;;;;;;;;;;;;;;;;;;
2023/11/03 20:33:26;;;;;;;12.60;5.50;;;;;;;9.03;100.00;97501.00;223818;1264;138283;-84
2023/11/03 20:39:11;;;;;;;;;;;;;;;;;;;;;
2023/11/03 20:45:06;;;;;;;11.30;4.20;;;;;;;8.86;100.00;97509.23;224046;1264;138209;-84
2023/11/03 20:51:05;;;;;;;22.30;14.70;;;;;;;8.78;100.00;97524.04;223424;1264;139460;-83
2023/11/03 20:56:45;;;;;;;;;;;;;;;;;;;;;
2023/11/03 21:02:48;;;;;;;7.50;3.30;;;;;;;8.55;100.00;97565.96;223415;1264;138841;-83
2023/11/03 21:08:51;;;;;;;10.50;3.70;;;;;;;8.50;100.00;97588.66;223417;1264;139227;-83
2023/11/03 21:14:53;;;;;;;8.30;3.10;;;;;;;8.40;100.00;97607.63;223880;1264;139224;-82
2023/11/03 21:20:54;;;;;;;10.10;3.10;;;;;;;8.34;100.00;97618.98;223432;1264;139440;-84
2023/11/03 21:27:19;;;;;;;7.10;1.90;;;;;;;8.28;100.00;97626.02;223488;1264;139120;-84
2023/11/03 21:32:58;;;;;;;9.50;2.70;;;;;;;8.22;100.00;97620.36;219381;1264;249335;-83
2023/11/03 21:38:25;;;;;;;7.90;2.30;;;;;;;8.20;100.00;97622.83;223428;1264;139695;-84
2023/11/03 21:44:20;;;;;;;10.30;3.00;;;;;;;8.18;100.00;97629.43;223875;1264;138562;-86
2023/11/03 21:50:18;;;;;;;;;;;;;;;;;;;;;
2023/11/03 21:56:18;;;;;;;;;;;;;;;;;;;;;
2023/11/03 22:08:20;;;;;;;9.90;4.20;;;;;;;8.10;100.00;97657.81;223052;1264;139560;-84
2023/11/03 22:13:55;;;;;;;14.20;5.30;;;;;;;8.13;100.00;97665.33;223918;1264;138310;-84
2023/11/03 22:19:46;;;;;;;;;;;;;;;;;;;;;
2023/11/03 22:25:48;;;;;;;10.10;4.60;;;;;;;8.10;100.00;97667.58;224001;1264;107401;-84
2023/11/03 22:31:47;;;;;;;;;;;;;;;;;;;;;
2023/11/03 22:37:46;;;;;;;16.00;8.00;;;;;;;8.05;100.00;97671.44;223977;1264;107348;-84
2023/11/03 22:43:36;;;;;;;;;;;;;;;;;;;;;
2023/11/03 22:49:28;;;;;;;;;;;;;;;;;;;;;
2023/11/03 22:55:39;;;;;;;19.30;9.50;;;;;;;8.10;100.00;97685.75;223958;1264;94592;-85
2023/11/03 23:01:41;;;;;;;21.50;10.30;;;;;;;8.13;100.00;97692.39;223531;1264;139131;-86
2023/11/03 23:07:40;;;;;;;18.60;9.80;;;;;;;8.14;100.00;97695.20;224056;1264;94598;-85
2023/11/03 23:13:21;;;;;;;15.70;9.10;;;;;;;8.16;100.00;97703.66;223725;1264;364796;-85
2023/11/03 23:19:12;;;;;;;;;;;;;;;;;;;;;
2023/11/03 23:31:15;;;;;;;18.10;7.70;;;;;;;8.18;100.00;97723.12;223455;1264;139831;-86
2023/11/03 23:37:16;;;;;;;15.10;7.70;;;;;;;8.18;100.00;97731.09;223957;1264;138738;-86
2023/11/03 23:55:12;;;;;;;14.20;7.10;;;;;;;8.21;100.00;97745.06;223940;1264;138119;-86
